Time;durP1;ratioP1;P1;durP2;ratioP2;P2;SDS_P1;SDS_P2;PMS_P1;PMS_P2;Temp;Humidity;BMP_temperature;BMP_pressure;BME280_temperature;BME280_humidity;BME280_pressure;Samples;Min_cycle;Max_cycle;Signal;HPM_P1;HPM_P2
2023/09/03 00:01:59;;;;;;;11.68;3.58;;;34.00;99.90;;;;;;5028792;28;20080;-56
2023/09/03 00:04:25;;;;;;;12.90;3.55;;;34.00;99.90;;;;;;5025881;28;20398;-57
2023/09/03 00:06:52;;;;;;;12.00;3.63;;;34.00;99.90;;;;;;5023742;28;20049;-57
2023/09/03 00:09:18;;;;;;;8.15;3.13;;;34.00;99.90;;;;;;5025546;28;20021;-56
2023/09/03 00:11:44;;;;;;;11.25;4.55;;;34.00;99.90;;;;;;5026359;28;20431;-58
2023/09/03 00:14:11;;;;;;;10.60;3.90;;;34.00;99.90;;;;;;5025229;28;20128;-57
2023/09/03 00:16:37;;;;;;;10.00;4.40;;;34.00;99.90;;;;;;5026003;28;20475;-57
2023/09/03 00:19:03;;;;;;;9.40;3.63;;;33.90;99.90;;;;;;5027999;28;20009;-57
2023/09/03 00:21:30;;;;;;;11.35;3.80;;;33.90;99.90;;;;;;5026368;28;20038;-57
2023/09/03 00:23:56;;;;;;;10.00;3.55;;;33.90;99.90;;;;;;5026408;28;20045;-56
2023/09/03 00:26:26;;;;;;;9.38;4.05;;;33.90;99.90;;;;;;5025641;28;20479;-58
2023/09/03 00:28:52;;;;;;;7.57;3.30;;;33.90;99.90;;;;;;5024925;28;20406;-56
2023/09/03 00:31:19;;;;;;;14.02;3.33;;;33.90;99.90;;;;;;5026429;28;20063;-66
2023/09/03 00:33:45;;;;;;;9.80;3.92;;;34.00;99.90;;;;;;5027814;28;20096;-62
2023/09/03 00:36:14;;;;;;;11.10;4.53;;;34.00;99.90;;;;;;5026437;28;20101;-63
2023/09/03 00:38:41;;;;;;;12.40;3.35;;;34.10;99.60;;;;;;5026527;28;20061;-62
2023/09/03 00:41:07;;;;;;;10.75;3.83;;;34.20;99.20;;;;;;5026065;28;20017;-61
2023/09/03 00:43:34;;;;;;;8.05;3.53;;;34.10;99.30;;;;;;5026419;28;20634;-62
2023/09/03 00:46:08;;;;;;;11.82;3.80;;;34.20;99.90;;;;;;5026471;28;20030;-62
2023/09/03 00:48:37;;;;;;;6.07;3.10;;;34.20;99.10;;;;;;5026158;28;20029;-62
2023/09/03 00:51:07;;;;;;;30.80;20.08;;;34.10;98.90;;;;;;5025245;28;20029;-61
2023/09/03 00:53:35;;;;;;;25.45;14.70;;;34.10;99.10;;;;;;5025178;28;20064;-62
2023/09/03 00:56:02;;;;;;;19.23;13.32;;;34.10;98.90;;;;;;5025578;28;20033;-63
2023/09/03 00:58:28;;;;;;;18.50;15.10;;;34.10;99.00;;;;;;5025434;28;20072;-62
2023/09/03 01:00:55;;;;;;;9.32;3.35;;;34.10;99.10;;;;;;5028019;28;20013;-63
2023/09/03 01:03:23;;;;;;;13.85;3.95;;;34.20;99.60;;;;;;5027083;28;20445;-61
2023/09/03 01:05:49;;;;;;;9.90;3.45;;;34.20;99.10;;;;;;5025895;28;20141;-62
2023/09/03 01:08:16;;;;;;;20.33;4.07;;;34.20;99.30;;;;;;5025380;28;20068;-63
2023/09/03 01:11:22;;;;;;;9.55;3.53;;;34.20;99.70;;;;;;5023073;28;20013;-59
2023/09/03 01:13:48;;;;;;;9.93;3.05;;;34.10;98.60;;;;;;5024828;28;20020;-62
2023/09/03 01:16:43;;;;;;;9.90;3.22;;;34.00;98.60;;;;;;5025246;28;20485;-61
2023/09/03 01:19:43;;;;;;;11.40;3.13;;;34.00;98.90;;;;;;5024453;28;20056;-60
2023/09/03 01:22:28;;;;;;;18.23;3.70;;;34.00;99.90;;;;;;5022968;28;20159;-60
2023/09/03 01:25:32;;;;;;;7.13;3.42;;;33.90;99.90;;;;;;5024747;28;20021;-61
2023/09/03 01:28:19;;;;;;;11.75;7.57;;;33.90;99.70;;;;;;5028367;28;20483;-58
2023/09/03 01:30:46;;;;;;;15.13;3.75;;;33.80;99.90;;;;;;5027569;28;20014;-61
2023/09/03 01:36:09;;;;;;;10.65;3.67;;;33.80;99.90;;;;;;5111215;27;20490;-64
2023/09/03 01:38:39;;;;;;;10.68;4.10;;;33.70;99.90;;;;;;5115625;28;20346;-68
2023/09/03 01:41:06;;;;;;;11.55;4.40;;;33.60;99.90;;;;;;5106580;27;20015;-68
2023/09/03 01:43:34;;;;;;;8.98;3.78;;;33.60;99.90;;;;;;5113533;28;20025;-65
2023/09/03 01:46:22;;;;;;;7.63;4.25;;;33.60;99.90;;;;;;5109450;28;20056;-64
2023/09/03 01:48:55;;;;;;;15.85;8.73;;;33.50;99.90;;;;;;5110461;28;20008;-66
2023/09/03 01:51:58;;;;;;;15.88;10.23;;;33.40;99.90;;;;;;5116351;28;20003;-65
2023/09/03 01:54:31;;;;;;;16.92;10.57;;;33.40;99.90;;;;;;5089480;28;20679;-67
2023/09/03 01:57:05;;;;;;;13.77;9.65;;;33.40;99.90;;;;;;5114171;27;20027;-67
2023/09/03 01:59:42;;;;;;;13.15;7.88;;;33.30;99.90;;;;;;5109696;28;20036;-64
2023/09/03 02:02:12;;;;;;;9.15;4.40;;;33.20;99.90;;;;;;5110611;28;20064;-65
2023/09/03 02:04:39;;;;;;;12.60;4.60;;;33.20;99.90;;;;;;5108613;28;20038;-64
2023/09/03 02:07:06;;;;;;;9.77;5.38;;;33.10;99.90;;;;;;5106582;28;20024;-66
2023/09/03 02:09:33;;;;;;;18.70;6.63;;;33.00;99.90;;;;;;5108936;28;20054;-66
2023/09/03 02:12:00;;;;;;;12.48;6.15;;;33.00;99.90;;;;;;5113818;27;20412;-67
2023/09/03 02:14:27;;;;;;;8.80;5.43;;;33.00;99.90;;;;;;5115753;27;20435;-67
2023/09/03 02:16:54;;;;;;;9.52;5.30;;;33.00;99.90;;;;;;5108934;28;20431;-68
2023/09/03 02:19:22;;;;;;;13.43;5.03;;;33.00;99.90;;;;;;5107535;27;20382;-66
2023/09/03 02:21:49;;;;;;;14.80;5.05;;;32.80;99.90;;;;;;5112702;28;20020;-68
2023/09/03 02:24:16;;;;;;;10.90;4.63;;;32.80;99.90;;;;;;5111469;28;20691;-65
2023/09/03 02:26:44;;;;;;;10.65;4.75;;;32.80;99.90;;;;;;5111014;28;20473;-66
2023/09/03 02:29:10;;;;;;;13.63;5.30;;;32.80;99.90;;;;;;5108005;28;20020;-67
2023/09/03 02:31:37;;;;;;;13.45;5.13;;;32.70;99.90;;;;;;5113012;28;20031;-74
2023/09/03 02:34:05;;;;;;;14.82;4.88;;;32.70;99.90;;;;;;5113908;27;20400;-70
2023/09/03 02:36:33;;;;;;;13.00;4.85;;;32.70;99.90;;;;;;5116687;27;20059;-68
2023/09/03 02:39:02;;;;;;;15.82;5.82;;;32.60;99.90;;;;;;5115562;28;20011;-69
2023/09/03 02:41:32;;;;;;;12.25;5.10;;;32.60;99.90;;;;;;5114764;28;20024;-70
2023/09/03 02:44:02;;;;;;;6.20;3.05;;;32.50;99.90;;;;;;5109214;28;20028;-70
2023/09/03 02:46:29;;;;;;;9.18;3.38;;;32.40;99.90;;;;;;5101522;28;20026;-70
2023/09/03 02:48:56;;;;;;;9.32;3.67;;;32.30;99.90;;;;;;5098247;28;20095;-72
2023/09/03 02:51:22;;;;;;;10.35;3.67;;;32.30;99.90;;;;;;5093164;28;20012;-69
2023/09/03 02:53:51;;;;;;;9.85;3.60;;;32.20;99.90;;;;;;5098213;28;20020;-70
2023/09/03 02:56:18;;;;;;;13.13;3.50;;;32.10;99.90;;;;;;5099580;28;20023;-71
2023/09/03 02:58:48;;;;;;;9.85;3.58;;;32.10;99.90;;;;;;5098386;28;20007;-71
2023/09/03 03:01:16;;;;;;;13.52;3.80;;;32.10;99.90;;;;;;5096701;28;20016;-70
2023/09/03 03:03:43;;;;;;;13.40;3.25;;;32.00;99.90;;;;;;5096570;28;20008;-71
2023/09/03 03:06:10;;;;;;;12.10;3.15;;;32.00;99.90;;;;;;5093277;28;20020;-70
2023/09/03 03:08:36;;;;;;;14.45;2.67;;;32.00;99.90;;;;;;5095250;28;20016;-71
2023/09/03 03:11:06;;;;;;;12.10;3.10;;;32.00;99.90;;;;;;5094717;28;20022;-70
2023/09/03 03:13:32;;;;;;;7.47;2.78;;;31.90;99.90;;;;;;5100159;28;20026;-70
2023/09/03 03:16:07;;;;;;;9.25;2.80;;;31.80;99.90;;;;;;5094912;28;20153;-71
2023/09/03 03:18:36;;;;;;;13.05;2.88;;;31.70;99.90;;;;;;5098666;28;20103;-69
2023/09/03 03:21:22;;;;;;;8.70;3.13;;;31.70;99.90;;;;;;5098532;28;20018;-69
2023/09/03 03:23:52;;;;;;;11.27;2.67;;;31.60;99.90;;;;;;5098156;28;20037;-71
2023/09/03 03:26:19;;;;;;;7.78;3.28;;;31.60;99.90;;;;;;5095826;28;20500;-72
2023/09/03 03:28:46;;;;;;;13.43;3.42;;;31.50;99.90;;;;;;5096640;28;20027;-71
2023/09/03 03:31:18;;;;;;;13.25;3.78;;;31.50;99.90;;;;;;5098340;28;20022;-71
2023/09/03 03:33:46;;;;;;;10.93;3.33;;;31.50;99.90;;;;;;5088789;28;20089;-72
2023/09/03 03:36:19;;;;;;;13.63;3.42;;;31.50;99.90;;;;;;5097371;27;20027;-69
2023/09/03 03:38:45;;;;;;;19.42;4.00;;;31.40;99.90;;;;;;5110715;27;20031;-70
2023/09/03 03:41:13;;;;;;;15.95;4.57;;;31.40;99.90;;;;;;5091705;27;20509;-68
2023/09/03 03:43:44;;;;;;;16.63;4.68;;;31.40;99.90;;;;;;5087865;28;20076;-70
2023/09/03 03:46:13;;;;;;;11.30;4.00;;;31.40;99.90;;;;;;5088636;28;20035;-70
2023/09/03 03:48:40;;;;;;;15.27;4.53;;;31.40;99.90;;;;;;5089885;28;20077;-71
2023/09/03 03:51:07;;;;;;;12.18;3.58;;;31.40;99.90;;;;;;5087803;28;20016;-70
2023/09/03 03:53:33;;;;;;;16.13;4.40;;;31.40;99.90;;;;;;5087712;28;20044;-70
2023/09/03 03:56:01;;;;;;;22.45;3.95;;;31.40;99.90;;;;;;5088082;28;20035;-70
2023/09/03 03:58:31;;;;;;;18.92;3.58;;;31.40;99.90;;;;;;5087004;28;20017;-69
2023/09/03 04:00:58;;;;;;;17.08;4.07;;;31.40;99.90;;;;;;5088516;28;20520;-70
2023/09/03 04:03:28;;;;;;;17.80;4.35;;;31.40;99.90;;;;;;5087734;28;20050;-70
2023/09/03 04:06:00;;;;;;;6.90;3.08;;;31.40;99.90;;;;;;5088351;28;20406;-69
2023/09/03 04:08:28;;;;;;;14.82;4.07;;;31.40;99.90;;;;;;5087058;28;20020;-69
2023/09/03 04:11:02;;;;;;;17.20;3.85;;;31.30;99.90;;;;;;5086443;28;20066;-70
2023/09/03 04:13:29;;;;;;;16.17;4.10;;;31.30;99.90;;;;;;5086399;28;20016;-69
2023/09/03 04:15:56;;;;;;;22.65;3.72;;;31.30;99.90;;;;;;5088938;28;20100;-70
2023/09/03 04:18:24;;;;;;;12.55;3.97;;;31.30;99.90;;;;;;5087715;28;20016;-70
2023/09/03 04:20:55;;;;;;;17.80;4.07;;;31.30;99.90;;;;;;5086260;28;20012;-70
2023/09/03 04:23:22;;;;;;;17.70;4.20;;;31.30;99.90;;;;;;5086620;28;20008;-69
2023/09/03 04:25:50;;;;;;;17.27;3.70;;;31.30;99.90;;;;;;5088698;28;20016;-70
2023/09/03 04:28:17;;;;;;;16.15;3.80;;;31.40;99.90;;;;;;5090054;28;20096;-69
2023/09/03 04:30:43;;;;;;;21.67;3.75;;;31.40;99.90;;;;;;5088592;28;20027;-68
2023/09/03 04:33:10;;;;;;;12.05;3.40;;;31.40;99.90;;;;;;5086967;28;20022;-70
2023/09/03 04:35:37;;;;;;;13.70;3.67;;;31.30;99.90;;;;;;5087686;28;20482;-69
2023/09/03 04:38:05;;;;;;;9.57;3.35;;;31.30;99.90;;;;;;5087159;28;20088;-70
2023/09/03 04:40:38;;;;;;;13.90;3.60;;;31.30;99.90;;;;;;5087680;28;20038;-70
2023/09/03 04:43:05;;;;;;;17.25;3.83;;;31.30;99.90;;;;;;5088655;28;20012;-72
2023/09/03 04:45:32;;;;;;;11.85;3.10;;;31.30;99.90;;;;;;5087831;28;20031;-70
2023/09/03 04:47:59;;;;;;;12.55;3.85;;;31.30;99.90;;;;;;5085906;28;20024;-69
2023/09/03 04:50:26;;;;;;;12.20;3.70;;;31.20;99.90;;;;;;5087260;28;20581;-71
2023/09/03 04:52:55;;;;;;;9.40;3.50;;;31.20;99.90;;;;;;5087612;28;20016;-71
2023/09/03 04:55:22;;;;;;;18.30;4.55;;;31.20;99.90;;;;;;5087558;28;20024;-70
2023/09/03 04:57:48;;;;;;;14.98;4.80;;;31.10;99.90;;;;;;5085204;28;20035;-70
2023/09/03 05:00:15;;;;;;;20.90;5.55;;;31.00;99.90;;;;;;5087286;28;20041;-70
2023/09/03 05:02:41;;;;;;;15.20;5.43;;;31.00;99.90;;;;;;5086793;28;20019;-70
2023/09/03 05:05:08;;;;;;;15.70;6.05;;;31.00;99.90;;;;;;5086865;28;20051;-70
2023/09/03 05:07:34;;;;;;;20.70;6.40;;;30.90;99.90;;;;;;5087210;28;20035;-69
2023/09/03 05:10:01;;;;;;;15.93;5.57;;;30.90;99.90;;;;;;5089063;28;20027;-70
2023/09/03 05:12:27;;;;;;;16.48;5.22;;;30.90;99.90;;;;;;5087853;28;20493;-70
2023/09/03 05:14:54;;;;;;;18.70;5.32;;;30.90;99.90;;;;;;5086296;28;20028;-71
2023/09/03 05:17:20;;;;;;;10.75;4.45;;;31.00;99.90;;;;;;5085989;28;20027;-70
2023/09/03 05:19:48;;;;;;;16.02;3.85;;;31.00;99.90;;;;;;5086369;28;20370;-70
2023/09/03 05:22:14;;;;;;;16.65;4.97;;;30.90;99.90;;;;;;5086963;28;20019;-71
2023/09/03 05:24:41;;;;;;;9.93;3.60;;;31.00;99.90;;;;;;5085935;28;20094;-71
2023/09/03 05:27:08;;;;;;;12.68;3.72;;;30.90;99.90;;;;;;5086676;28;20016;-72
2023/09/03 05:29:35;;;;;;;14.85;4.28;;;30.90;99.90;;;;;;5086830;28;20045;-70
2023/09/03 05:32:02;;;;;;;24.20;4.25;;;30.90;99.90;;;;;;5086072;28;20402;-71
2023/09/03 05:34:28;;;;;;;14.23;4.07;;;30.80;99.90;;;;;;5086100;28;20020;-70
2023/09/03 05:36:54;;;;;;;13.35;3.63;;;30.80;99.90;;;;;;5085736;28;20009;-70
2023/09/03 05:39:21;;;;;;;16.85;4.40;;;30.80;99.90;;;;;;5087240;28;20016;-71
2023/09/03 05:41:47;;;;;;;14.48;5.13;;;30.70;99.90;;;;;;5087096;28;20032;-71
2023/09/03 05:44:15;;;;;;;15.75;4.88;;;30.70;99.90;;;;;;5086104;28;20020;-71
2023/09/03 05:46:43;;;;;;;13.90;4.22;;;30.60;99.90;;;;;;5086128;28;20090;-70
2023/09/03 05:49:09;;;;;;;22.02;4.53;;;30.60;99.90;;;;;;5086222;28;20066;-71
2023/09/03 05:51:35;;;;;;;13.68;4.43;;;30.60;99.90;;;;;;5085997;28;20024;-72
2023/09/03 05:54:02;;;;;;;10.10;4.72;;;30.60;99.90;;;;;;5086221;28;20532;-71
2023/09/03 05:56:28;;;;;;;15.63;4.38;;;30.70;99.90;;;;;;5087049;28;20042;-71
2023/09/03 05:58:56;;;;;;;19.77;4.30;;;30.70;99.90;;;;;;5086326;28;20012;-71
2023/09/03 06:01:22;;;;;;;9.68;3.92;;;30.70;99.90;;;;;;5086174;28;20040;-71
2023/09/03 06:03:48;;;;;;;14.40;4.57;;;30.60;99.90;;;;;;5085331;28;20071;-70
2023/09/03 06:06:15;;;;;;;18.15;7.90;;;30.60;99.90;;;;;;5087039;28;20035;-71
2023/09/03 06:08:42;;;;;;;15.25;6.15;;;30.60;99.90;;;;;;5086337;28;20020;-71
2023/09/03 06:11:08;;;;;;;17.58;5.35;;;30.60;99.90;;;;;;5088419;28;20031;-72
2023/09/03 06:13:35;;;;;;;15.52;5.65;;;30.60;99.90;;;;;;5086874;28;20029;-72
2023/09/03 06:16:01;;;;;;;17.15;6.07;;;30.60;99.90;;;;;;5086537;28;20123;-70
2023/09/03 06:18:28;;;;;;;13.57;5.03;;;30.50;99.90;;;;;;5086612;28;20058;-72
2023/09/03 06:20:54;;;;;;;19.65;6.38;;;30.40;99.90;;;;;;5084966;28;20470;-71
2023/09/03 06:23:21;;;;;;;18.95;5.88;;;30.40;99.90;;;;;;5090011;28;20026;-72
2023/09/03 06:25:50;;;;;;;13.05;5.45;;;30.40;99.90;;;;;;5088903;28;20372;-71
2023/09/03 06:28:17;;;;;;;15.13;5.63;;;30.40;99.90;;;;;;5088192;28;20458;-72
2023/09/03 06:30:43;;;;;;;14.80;6.35;;;30.30;99.90;;;;;;5088394;28;20016;-70
2023/09/03 06:33:12;;;;;;;18.98;6.22;;;30.30;99.90;;;;;;5089331;28;20020;-70
2023/09/03 06:35:39;;;;;;;16.88;5.00;;;30.30;99.90;;;;;;5088321;28;20486;-71
2023/09/03 06:38:05;;;;;;;21.23;5.50;;;30.30;99.90;;;;;;5087065;28;20078;-71
2023/09/03 06:40:31;;;;;;;10.38;4.50;;;30.30;99.90;;;;;;5087451;28;20047;-70
2023/09/03 06:42:58;;;;;;;15.02;4.13;;;30.30;99.90;;;;;;5089678;28;20012;-70
2023/09/03 06:45:24;;;;;;;17.70;4.43;;;30.30;99.90;;;;;;5088228;28;20512;-71
2023/09/03 06:47:50;;;;;;;7.75;4.38;;;30.20;99.90;;;;;;5088396;28;20092;-68
2023/09/03 06:50:17;;;;;;;13.45;4.47;;;30.20;99.90;;;;;;5087567;28;20039;-71
2023/09/03 06:52:43;;;;;;;15.90;5.10;;;30.20;99.90;;;;;;5088386;28;20042;-70
2023/09/03 06:55:10;;;;;;;19.85;4.45;;;30.20;99.90;;;;;;5089179;28;20054;-71
2023/09/03 06:57:36;;;;;;;10.13;4.15;;;30.10;99.90;;;;;;5088324;28;20078;-69
2023/09/03 07:00:06;;;;;;;11.13;4.57;;;30.10;99.90;;;;;;5087693;28;20073;-71
2023/09/03 07:02:32;;;;;;;15.75;4.80;;;30.10;99.90;;;;;;5088676;28;20016;-69
2023/09/03 07:05:00;;;;;;;15.90;4.22;;;30.10;99.90;;;;;;5088477;28;20021;-69
2023/09/03 07:07:27;;;;;;;13.50;4.68;;;30.10;99.90;;;;;;5088069;28;20027;-70
2023/09/03 07:09:55;;;;;;;13.80;4.95;;;30.10;99.90;;;;;;5089480;28;20069;-70
2023/09/03 07:12:22;;;;;;;14.13;4.45;;;30.00;99.90;;;;;;5089183;28;20054;-69
2023/09/03 07:14:48;;;;;;;11.02;4.43;;;30.00;99.90;;;;;;5087933;28;20058;-70
2023/09/03 07:17:15;;;;;;;12.18;5.00;;;30.10;99.90;;;;;;5086802;28;20049;-69
2023/09/03 07:19:41;;;;;;;14.15;5.07;;;30.10;99.90;;;;;;5089249;28;20026;-70
2023/09/03 07:22:08;;;;;;;14.55;4.75;;;30.00;99.90;;;;;;5087990;28;20381;-71
2023/09/03 07:24:34;;;;;;;13.88;4.43;;;30.00;99.90;;;;;;5087352;28;20120;-70
2023/09/03 07:27:01;;;;;;;11.07;4.55;;;30.00;99.90;;;;;;5088981;28;20020;-69
2023/09/03 07:29:27;;;;;;;16.02;5.25;;;30.00;99.90;;;;;;5087622;28;20525;-70
2023/09/03 07:31:53;;;;;;;17.98;4.97;;;30.00;99.90;;;;;;5087471;28;20059;-71
2023/09/03 07:34:20;;;;;;;10.85;4.55;;;29.90;99.90;;;;;;5086583;28;20062;-71
2023/09/03 07:36:46;;;;;;;13.95;5.15;;;29.90;99.90;;;;;;5087864;28;20038;-70
2023/09/03 07:39:13;;;;;;;11.68;4.43;;;29.80;99.90;;;;;;5086854;28;20157;-70
2023/09/03 07:41:39;;;;;;;16.63;5.03;;;29.80;99.90;;;;;;5086178;28;20516;-70
2023/09/03 07:44:07;;;;;;;14.27;4.82;;;29.80;99.90;;;;;;5087460;28;20157;-70
2023/09/03 07:46:34;;;;;;;17.73;4.20;;;29.80;99.90;;;;;;5086964;28;20044;-69
2023/09/03 07:49:00;;;;;;;10.48;4.43;;;29.70;99.90;;;;;;5086958;28;20551;-72
2023/09/03 07:51:27;;;;;;;12.50;4.57;;;29.70;99.90;;;;;;5084599;28;20071;-71
2023/09/03 07:53:53;;;;;;;13.68;4.05;;;29.80;99.90;;;;;;5087923;28;20099;-70
2023/09/03 07:56:20;;;;;;;9.05;3.72;;;29.80;99.90;;;;;;5088038;28;20506;-70
2023/09/03 07:58:46;;;;;;;9.43;3.33;;;29.80;99.90;;;;;;5085989;28;20036;-70
2023/09/03 08:01:15;;;;;;;14.43;3.72;;;29.70;99.90;;;;;;5086559;28;20099;-72
2023/09/03 08:03:43;;;;;;;10.13;3.80;;;29.70;99.90;;;;;;5088032;28;20053;-71
2023/09/03 08:06:10;;;;;;;8.98;3.90;;;29.60;99.90;;;;;;5086391;28;20370;-69
2023/09/03 08:08:38;;;;;;;11.70;4.03;;;29.60;99.90;;;;;;5085730;28;20089;-71
2023/09/03 08:11:05;;;;;;;18.67;4.70;;;29.70;99.90;;;;;;5087782;28;20050;-71
2023/09/03 08:13:31;;;;;;;21.25;4.60;;;29.60;99.90;;;;;;5087064;28;20042;-70
2023/09/03 08:15:57;;;;;;;13.70;4.93;;;29.60;99.90;;;;;;5088523;28;20062;-69
2023/09/03 08:18:24;;;;;;;17.92;5.28;;;29.70;99.90;;;;;;5087502;28;20049;-71
2023/09/03 08:20:51;;;;;;;12.82;4.90;;;29.60;99.90;;;;;;5085748;28;20073;-71
2023/09/03 08:23:18;;;;;;;18.50;5.75;;;29.60;99.90;;;;;;5086375;28;20044;-71
2023/09/03 08:25:45;;;;;;;15.88;5.22;;;29.60;99.90;;;;;;5086749;28;20535;-71
2023/09/03 08:28:12;;;;;;;13.27;5.25;;;29.50;99.90;;;;;;5085459;28;20544;-70
2023/09/03 08:30:39;;;;;;;11.98;5.30;;;29.50;99.90;;;;;;5086974;28;20527;-71
2023/09/03 08:33:05;;;;;;;16.27;4.88;;;29.50;99.90;;;;;;5087117;28;20051;-71
2023/09/03 08:35:31;;;;;;;21.95;5.25;;;29.40;99.90;;;;;;5085613;28;20735;-70
2023/09/03 08:37:58;;;;;;;22.60;5.32;;;29.30;99.90;;;;;;5085146;28;20059;-72
2023/09/03 08:40:26;;;;;;;14.32;4.93;;;29.40;99.90;;;;;;5086046;28;20118;-70
2023/09/03 08:42:54;;;;;;;10.80;5.00;;;29.30;99.90;;;;;;5085502;28;20464;-69
2023/09/03 08:45:22;;;;;;;16.98;5.15;;;29.30;99.90;;;;;;5084429;28;20551;-70
2023/09/03 08:47:48;;;;;;;12.57;5.38;;;29.20;99.90;;;;;;5086365;28;20046;-70
2023/09/03 08:50:16;;;;;;;22.75;4.85;;;29.20;99.90;;;;;;5083526;28;20039;-74
2023/09/03 08:52:44;;;;;;;14.05;5.03;;;29.20;99.90;;;;;;5087939;28;20517;-72
2023/09/03 08:55:14;;;;;;;22.83;5.15;;;29.30;99.90;;;;;;5086828;28;20065;-70
2023/09/03 08:57:42;;;;;;;10.85;4.28;;;29.30;99.90;;;;;;5090752;28;20050;-70
2023/09/03 09:00:11;;;;;;;12.20;4.75;;;29.30;99.90;;;;;;5088659;28;20826;-70
2023/09/03 09:02:38;;;;;;;12.00;5.03;;;29.40;99.90;;;;;;5085696;28;20056;-70
2023/09/03 09:05:07;;;;;;;9.30;4.35;;;29.40;99.90;;;;;;5083279;28;20057;-70
2023/09/03 09:07:34;;;;;;;12.15;5.30;;;29.40;99.90;;;;;;5087609;28;20412;-71
2023/09/03 09:10:06;;;;;;;15.93;4.95;;;29.40;99.90;;;;;;5086106;28;20059;-70
2023/09/03 09:12:41;;;;;;;13.35;5.20;;;29.40;99.90;;;;;;5090182;28;20125;-71
2023/09/03 09:15:08;;;;;;;9.90;4.75;;;29.40;99.90;;;;;;5089747;28;20517;-68
2023/09/03 09:17:42;;;;;;;18.10;4.75;;;29.40;99.90;;;;;;5090414;28;20375;-69
2023/09/03 09:20:12;;;;;;;15.77;4.70;;;29.50;99.90;;;;;;5082329;28;20032;-69
2023/09/03 09:22:46;;;;;;;14.68;4.93;;;29.50;99.90;;;;;;5092642;28;20044;-70
2023/09/03 09:25:19;;;;;;;14.88;4.88;;;29.40;99.90;;;;;;5092014;28;20047;-70
2023/09/03 09:27:46;;;;;;;15.77;5.10;;;29.50;99.90;;;;;;5086282;28;20055;-69
2023/09/03 09:30:35;;;;;;;16.23;5.03;;;29.50;99.90;;;;;;5091066;28;20054;-69
2023/09/03 09:33:07;;;;;;;16.92;5.07;;;29.50;99.90;;;;;;5087514;28;20035;-70
2023/09/03 09:35:34;;;;;;;14.95;5.00;;;29.50;99.90;;;;;;5090085;28;20023;-69
2023/09/03 09:38:05;;;;;;;18.30;5.65;;;29.50;99.90;;;;;;5093174;28;20472;-68
2023/09/03 09:40:32;;;;;;;11.32;5.53;;;29.40;99.90;;;;;;5094407;28;20078;-69
2023/09/03 09:43:01;;;;;;;19.67;5.32;;;29.40;99.90;;;;;;5089851;28;20430;-70
2023/09/03 09:45:27;;;;;;;10.52;4.95;;;29.40;99.90;;;;;;5089634;28;21613;-70
2023/09/03 09:48:10;;;;;;;14.60;5.50;;;29.40;99.90;;;;;;5089351;28;20744;-68
2023/09/03 09:50:48;;;;;;;12.50;4.68;;;29.40;99.90;;;;;;5089688;28;20047;-70
2023/09/03 09:53:28;;;;;;;14.82;4.88;;;29.40;99.90;;;;;;5089165;28;20091;-71
2023/09/03 09:56:03;;;;;;;13.32;5.22;;;29.40;99.90;;;;;;5091616;28;20382;-70
2023/09/03 09:58:39;;;;;;;16.50;4.93;;;29.40;99.90;;;;;;5091195;28;20047;-68
2023/09/03 10:01:07;;;;;;;14.55;5.75;;;29.40;99.90;;;;;;5094245;28;20039;-68
2023/09/03 10:03:47;;;;;;;17.80;5.68;;;29.30;99.90;;;;;;5095278;28;20100;-69
2023/09/03 10:06:14;;;;;;;13.98;5.30;;;29.30;99.90;;;;;;5092879;28;20054;-69
2023/09/03 10:08:45;;;;;;;16.02;5.00;;;29.20;99.90;;;;;;5095469;28;20043;-69
2023/09/03 10:11:12;;;;;;;17.38;5.75;;;29.30;99.90;;;;;;5091744;28;20111;-70
2023/09/03 10:13:42;;;;;;;11.95;5.07;;;29.20;99.90;;;;;;5100477;28;20087;-69
2023/09/03 10:16:10;;;;;;;14.30;4.93;;;29.20;99.90;;;;;;5097512;28;20053;-69
2023/09/03 10:18:44;;;;;;;15.02;4.97;;;29.20;99.90;;;;;;5097841;28;20144;-68
2023/09/03 10:21:10;;;;;;;13.40;5.65;;;29.10;99.90;;;;;;5092919;28;20042;-68
2023/09/03 10:23:58;;;;;;;17.27;4.75;;;29.10;99.90;;;;;;5095977;28;20043;-66
2023/09/03 10:26:34;;;;;;;16.17;4.82;;;29.30;99.90;;;;;;5092823;28;20589;-65
2023/09/03 10:29:04;;;;;;;14.18;5.18;;;29.40;99.90;;;;;;5092579;28;20411;-66
2023/09/03 10:31:32;;;;;;;17.55;5.45;;;29.40;99.90;;;;;;5089253;28;20054;-64
2023/09/03 10:33:59;;;;;;;17.17;5.10;;;29.40;99.90;;;;;;5094011;28;20058;-65
2023/09/03 10:36:25;;;;;;;20.50;5.05;;;29.60;99.90;;;;;;5088759;28;20039;-66
2023/09/03 10:38:52;;;;;;;14.38;4.88;;;29.70;99.90;;;;;;5090712;28;20063;-66
2023/09/03 10:41:23;;;;;;;14.60;5.30;;;29.70;99.90;;;;;;5096035;28;20059;-65
2023/09/03 10:43:56;;;;;;;21.63;5.30;;;29.70;99.90;;;;;;5091835;28;21659;-65
2023/09/03 10:46:25;;;;;;;16.65;5.55;;;29.80;99.90;;;;;;5090620;28;20467;-66
2023/09/03 10:48:56;;;;;;;18.77;5.40;;;29.80;99.90;;;;;;5099398;28;20047;-66
2023/09/03 10:51:37;;;;;;;17.75;5.18;;;29.80;99.90;;;;;;5090955;28;20086;-65
2023/09/03 10:54:21;;;;;;;14.32;5.20;;;29.90;99.90;;;;;;5096482;28;20431;-67
2023/09/03 10:57:20;;;;;;;15.77;5.13;;;29.80;99.90;;;;;;5091456;28;20524;-66
2023/09/03 11:00:07;;;;;;;17.60;5.60;;;29.60;99.90;;;;;;5034194;28;20120;-66
2023/09/03 11:02:35;;;;;;;15.02;5.75;;;29.50;99.90;;;;;;5035090;28;20406;-66
2023/09/03 11:05:21;;;;;;;14.50;4.82;;;29.40;99.90;;;;;;5032351;28;20048;-66
2023/09/03 11:07:49;;;;;;;15.70;4.88;;;29.40;99.90;;;;;;5036242;28;20064;-66
2023/09/03 11:10:21;;;;;;;9.60;4.60;;;29.40;99.90;;;;;;5036618;28;20056;-65
2023/09/03 11:12:48;;;;;;;10.07;4.68;;;29.30;99.90;;;;;;5038351;28;20186;-67
2023/09/03 11:15:15;;;;;;;11.63;4.82;;;29.30;99.90;;;;;;5037605;28;20064;-67
2023/09/03 11:17:55;;;;;;;13.38;5.10;;;29.40;99.90;;;;;;5033508;28;20482;-65
2023/09/03 11:20:31;;;;;;;10.50;4.53;;;29.30;99.90;;;;;;5039030;28;20379;-67
2023/09/03 11:22:58;;;;;;;;;;;29.20;99.90;;;;;;5027392;28;20082;-65
2023/09/03 11:25:51;;;;;;;13.40;5.55;;;29.10;99.90;;;;;;5034340;28;19932;-64
2023/09/03 11:28:17;;;;;;;14.50;4.60;;;29.10;99.90;;;;;;5031623;28;20051;-65
2023/09/03 11:30:45;;;;;;;14.13;4.53;;;29.10;99.90;;;;;;5029288;28;20562;-66
2023/09/03 11:33:28;;;;;;;10.63;4.80;;;29.20;99.90;;;;;;5035301;28;20538;-64
2023/09/03 11:35:56;;;;;;;13.38;4.82;;;29.20;99.90;;;;;;5072367;28;20083;-66
2023/09/03 11:38:27;;;;;;;12.93;4.78;;;29.20;99.90;;;;;;5091880;28;20037;-66
2023/09/03 11:40:58;;;;;;;15.13;4.47;;;29.20;99.90;;;;;;5090755;28;20092;-66
2023/09/03 11:43:28;;;;;;;8.73;4.25;;;29.10;99.90;;;;;;5092175;28;20044;-66
2023/09/03 11:45:55;;;;;;;11.68;4.38;;;29.10;99.90;;;;;;5091769;28;20058;-66
2023/09/03 11:48:26;;;;;;;13.15;4.65;;;29.10;99.90;;;;;;5095091;28;20126;-66
2023/09/03 11:50:53;;;;;;;14.75;5.38;;;29.20;99.90;;;;;;5086044;28;20055;-66
2023/09/03 11:53:19;;;;;;;12.48;5.43;;;29.10;99.90;;;;;;5093283;28;20154;-65
2023/09/03 11:55:59;;;;;;;15.10;5.90;;;29.10;99.90;;;;;;5092260;28;20542;-66
2023/09/03 11:58:28;;;;;;;11.50;5.60;;;29.10;99.90;;;;;;5090899;28;20051;-66
2023/09/03 12:00:55;;;;;;;15.23;5.80;;;29.20;99.90;;;;;;5088841;28;20464;-66
2023/09/03 12:03:23;;;;;;;13.07;5.95;;;29.10;99.90;;;;;;5092911;28;20100;-66
2023/09/03 12:05:50;;;;;;;14.25;5.55;;;29.10;99.90;;;;;;5091995;28;20226;-65
2023/09/03 12:08:16;;;;;;;15.38;5.60;;;29.10;99.90;;;;;;5091744;28;20047;-65
2023/09/03 12:10:48;;;;;;;14.75;5.35;;;29.10;99.90;;;;;;5091083;28;20516;-65
2023/09/03 12:13:34;;;;;;;11.68;5.60;;;29.10;99.90;;;;;;5089969;28;20048;-64
2023/09/03 12:16:10;;;;;;;15.10;5.65;;;29.10;99.90;;;;;;5092992;28;20066;-66
2023/09/03 12:18:38;;;;;;;12.95;5.25;;;29.10;99.90;;;;;;5092199;28;20047;-66
2023/09/03 12:21:07;;;;;;;12.23;4.80;;;29.00;99.90;;;;;;5086289;28;20094;-66
2023/09/03 12:23:37;;;;;;;14.27;5.80;;;28.90;99.90;;;;;;5088674;28;20045;-65
2023/09/03 12:26:05;;;;;;;15.70;5.60;;;28.90;99.90;;;;;;5090914;28;20065;-66
2023/09/03 12:28:37;;;;;;;10.75;5.40;;;28.90;99.90;;;;;;5088932;28;20050;-65
2023/09/03 12:31:05;;;;;;;10.02;5.75;;;28.90;99.90;;;;;;5089774;28;20130;-65
2023/09/03 12:33:45;;;;;;;11.35;5.07;;;28.80;99.90;;;;;;5094408;28;20127;-65
2023/09/03 12:36:14;;;;;;;14.02;5.30;;;28.80;99.90;;;;;;5091317;28;20398;-65
2023/09/03 12:39:15;;;;;;;14.82;5.95;;;28.80;99.90;;;;;;5092569;28;20049;-66
2023/09/03 12:41:42;;;;;;;15.85;5.82;;;28.70;99.90;;;;;;5090936;28;20131;-65
2023/09/03 12:44:09;;;;;;;16.13;5.88;;;28.70;99.90;;;;;;5092237;28;20096;-66
2023/09/03 12:46:36;;;;;;;14.48;5.60;;;28.70;99.90;;;;;;5089836;28;20524;-65
2023/09/03 12:49:03;;;;;;;15.98;5.72;;;28.60;99.90;;;;;;5088875;28;20451;-66
2023/09/03 12:51:32;;;;;;;17.55;5.38;;;28.60;99.90;;;;;;5086788;28;20531;-65
2023/09/03 12:53:59;;;;;;;15.43;5.40;;;28.50;99.90;;;;;;5092432;28;20050;-67